Time;durP1;ratioP1;P1;durP2;ratioP2;P2;SDS_P1;SDS_P2;PMS_P1;PMS_P2;Temp;Humidity;BMP_temperature;BMP_pressure;BME280_temperature;BME280_humidity;BME280_pressure;Samples;Min_cycle;Max_cycle;Signal;HPM_P1;HPM_P2
2021/03/27 00:01:50;;;;;;;2.73;1.90;;;11.80;93.40;;;;;;5072462;28;20516;-69
2021/03/27 00:04:21;;;;;;;1.20;1.00;;;12.00;91.70;;;;;;5073710;28;20876;-69
2021/03/27 00:06:52;;;;;;;1.60;1.30;;;12.20;91.30;;;;;;5072701;28;20500;-69
2021/03/27 00:09:34;;;;;;;1.90;1.50;;;12.40;90.50;;;;;;5088927;28;20464;-68
2021/03/27 00:12:05;;;;;;;1.50;1.40;;;12.70;90.30;;;;;;5071151;28;20514;-69
2021/03/27 00:14:45;;;;;;;2.20;1.30;;;12.80;90.20;;;;;;5088249;28;20489;-68
2021/03/27 00:17:18;;;;;;;1.37;1.20;;;12.90;90.50;;;;;;5070850;28;20962;-69
2021/03/27 00:19:50;;;;;;;2.07;1.30;;;13.00;91.00;;;;;;5072920;28;20486;-66
2021/03/27 00:22:25;;;;;;;1.77;1.30;;;13.00;91.20;;;;;;5071245;28;20457;-69
2021/03/27 00:25:05;;;;;;;1.90;1.70;;;13.10;91.40;;;;;;5071744;28;20807;-67
2021/03/27 00:27:37;;;;;;;2.90;1.83;;;13.10;91.60;;;;;;5071299;28;20460;-67
2021/03/27 00:30:08;;;;;;;1.30;1.10;;;13.10;92.10;;;;;;5071638;28;20490;-68
2021/03/27 00:32:41;;;;;;;3.10;1.40;;;13.10;92.50;;;;;;5071260;28;20467;-69
2021/03/27 00:35:11;;;;;;;2.13;1.50;;;13.10;93.60;;;;;;5072843;28;20464;-69
2021/03/27 00:37:41;;;;;;;1.20;1.00;;;13.00;94.10;;;;;;5071050;28;20457;-69
2021/03/27 00:40:12;;;;;;;1.20;1.20;;;12.90;94.20;;;;;;5072643;28;20458;-68
2021/03/27 00:42:45;;;;;;;1.60;1.13;;;12.80;96.00;;;;;;5071082;28;20485;-68
2021/03/27 00:45:15;;;;;;;1.50;1.40;;;12.70;97.10;;;;;;5072472;28;20514;-68
2021/03/27 00:47:48;;;;;;;2.13;1.20;;;12.60;97.40;;;;;;5070910;28;20472;-68
2021/03/27 00:50:20;;;;;;;1.43;1.30;;;12.50;98.00;;;;;;5087806;28;20499;-68
2021/03/27 00:52:51;;;;;;;1.20;1.20;;;12.50;98.00;;;;;;5070648;28;20871;-68
2021/03/27 00:55:22;;;;;;;2.83;1.60;;;12.40;98.00;;;;;;5072397;28;20512;-69
2021/03/27 00:57:56;;;;;;;1.20;1.00;;;12.40;98.00;;;;;;5070249;28;20499;-69
2021/03/27 01:00:30;;;;;;;1.20;1.00;;;12.30;98.00;;;;;;5072214;28;20481;-68
2021/03/27 01:03:06;;;;;;;1.63;1.33;;;12.30;98.00;;;;;;5070487;28;20472;-69
2021/03/27 01:05:34;;;;;;;1.40;1.20;;;12.20;98.00;;;;;;5071956;28;20502;-68
2021/03/27 01:08:03;;;;;;;1.30;1.13;;;12.20;98.00;;;;;;5070236;28;20533;-69
2021/03/27 01:10:36;;;;;;;1.40;1.30;;;12.10;98.00;;;;;;5071904;28;20490;-68
2021/03/27 01:13:08;;;;;;;1.30;1.10;;;12.00;98.00;;;;;;5085310;28;20456;-68
2021/03/27 01:15:41;;;;;;;1.77;1.23;;;12.10;98.00;;;;;;5071845;28;20461;-68
2021/03/27 01:18:12;;;;;;;1.30;1.23;;;12.00;98.00;;;;;;5070013;28;20498;-68
2021/03/27 01:20:42;;;;;;;1.20;1.00;;;12.10;98.00;;;;;;5071581;28;20940;-68
2021/03/27 01:23:10;;;;;;;1.77;1.70;;;12.00;98.00;;;;;;5070149;28;20495;-69
2021/03/27 01:25:38;;;;;;;1.87;1.40;;;11.90;98.00;;;;;;5087362;28;20514;-68
2021/03/27 01:28:08;;;;;;;5.60;1.30;;;12.00;98.00;;;;;;5069630;28;20466;-70
2021/03/27 01:30:39;;;;;;;2.33;1.70;;;11.90;98.00;;;;;;5070880;28;20520;-69
2021/03/27 01:33:19;;;;;;;1.20;1.00;;;11.90;98.00;;;;;;5069811;28;20593;-69
2021/03/27 01:35:48;;;;;;;1.40;1.20;;;11.90;98.00;;;;;;5071865;28;20521;-68
2021/03/27 01:38:22;;;;;;;3.20;1.63;;;11.90;98.00;;;;;;5069466;28;20454;-68
2021/03/27 01:40:58;;;;;;;1.30;1.13;;;11.90;98.00;;;;;;5071340;28;20467;-68
2021/03/27 01:43:31;;;;;;;1.53;1.40;;;11.90;98.00;;;;;;5069562;28;20519;-68
2021/03/27 01:46:27;;;;;;;1.30;1.00;;;11.90;98.00;;;;;;5071218;28;20467;-68
2021/03/27 01:49:04;;;;;;;1.20;1.00;;;12.00;98.00;;;;;;5086181;28;20552;-68
2021/03/27 01:52:00;;;;;;;1.20;1.03;;;12.00;98.00;;;;;;5069372;28;20485;-68
2021/03/27 01:54:33;;;;;;;1.20;1.10;;;11.90;98.00;;;;;;5068645;28;20597;-68
2021/03/27 01:57:21;;;;;;;1.60;1.33;;;11.80;98.00;;;;;;5069674;28;20445;-68
2021/03/27 01:59:52;;;;;;;1.20;1.10;;;11.80;98.00;;;;;;5070910;28;20468;-68
2021/03/27 02:02:30;;;;;;;1.40;1.20;;;11.80;98.00;;;;;;5069158;28;20484;-68
2021/03/27 02:05:03;;;;;;;1.50;1.23;;;11.80;98.00;;;;;;5071166;28;20449;-68
2021/03/27 02:07:40;;;;;;;1.30;1.10;;;11.80;98.00;;;;;;5069179;28;20484;-68
2021/03/27 02:10:17;;;;;;;1.20;1.00;;;11.80;98.00;;;;;;5071011;28;20463;-68
2021/03/27 02:12:53;;;;;;;1.67;1.37;;;11.80;98.00;;;;;;5068798;28;20471;-68
2021/03/27 02:15:30;;;;;;;1.20;1.00;;;11.70;98.00;;;;;;5070937;28;20461;-68
2021/03/27 02:18:01;;;;;;;1.30;1.10;;;11.70;98.00;;;;;;5083313;28;20466;-68
2021/03/27 02:20:58;;;;;;;1.20;0.90;;;11.60;98.00;;;;;;5070940;28;20504;-68
2021/03/27 02:23:32;;;;;;;1.20;1.10;;;11.50;98.00;;;;;;5061050;28;20487;-68
2021/03/27 02:26:21;;;;;;;1.20;1.00;;;11.40;98.00;;;;;;5070883;28;20465;-68
2021/03/27 02:29:27;;;;;;;2.33;1.10;;;11.30;98.00;;;;;;5070673;28;20963;-68
2021/03/27 02:32:01;;;;;;;1.20;1.00;;;11.30;98.00;;;;;;5068981;28;21018;-68
2021/03/27 02:34:38;;;;;;;1.20;1.00;;;11.30;98.00;;;;;;5070586;28;20966;-68
2021/03/27 02:37:09;;;;;;;1.20;1.10;;;11.10;98.00;;;;;;5069066;28;20458;-68
2021/03/27 02:39:44;;;;;;;1.40;1.10;;;11.10;98.00;;;;;;5070564;28;20464;-68
2021/03/27 02:42:36;;;;;;;1.20;1.00;;;11.00;98.00;;;;;;5068922;28;20449;-68
2021/03/27 02:45:10;;;;;;;1.40;1.23;;;10.90;98.00;;;;;;5085151;28;20499;-68
2021/03/27 02:47:45;;;;;;;1.47;1.37;;;10.90;98.00;;;;;;5083862;28;20461;-68
2021/03/27 02:50:27;;;;;;;1.30;1.00;;;10.80;98.00;;;;;;5070644;28;20462;-68
2021/03/27 02:53:00;;;;;;;1.20;1.00;;;10.80;98.00;;;;;;5068574;28;20489;-68
2021/03/27 02:55:34;;;;;;;1.40;1.30;;;10.60;98.00;;;;;;5070572;28;20507;-68
2021/03/27 02:58:10;;;;;;;1.20;1.10;;;10.60;98.00;;;;;;5069046;28;20515;-68
2021/03/27 03:00:45;;;;;;;1.40;1.30;;;10.40;98.00;;;;;;5070556;28;20832;-68
2021/03/27 03:03:20;;;;;;;1.20;1.00;;;10.40;98.00;;;;;;5068833;28;20926;-67
2021/03/27 03:05:51;;;;;;;1.50;1.20;;;10.40;98.00;;;;;;5070544;28;20459;-67
2021/03/27 03:08:23;;;;;;;1.20;1.00;;;10.40;98.00;;;;;;5084328;28;20449;-67
2021/03/27 03:10:58;;;;;;;1.40;1.00;;;10.40;98.00;;;;;;5070499;28;20484;-68
2021/03/27 03:13:31;;;;;;;1.20;1.10;;;10.40;98.00;;;;;;5068884;28;20510;-67
2021/03/27 03:16:07;;;;;;;1.20;1.00;;;10.50;98.00;;;;;;5070576;28;20456;-68
2021/03/27 03:18:44;;;;;;;1.20;1.10;;;10.40;98.00;;;;;;5083681;28;20469;-67
2021/03/27 03:21:16;;;;;;;1.20;1.10;;;10.50;98.00;;;;;;5070317;28;20562;-67
2021/03/27 03:23:55;;;;;;;1.20;1.00;;;10.40;98.00;;;;;;5068901;28;20465;-67
2021/03/27 03:26:36;;;;;;;1.20;1.00;;;10.50;98.00;;;;;;5068492;28;20448;-68
2021/03/27 03:29:12;;;;;;;1.20;1.00;;;10.60;98.00;;;;;;5070303;28;20457;-67
2021/03/27 03:31:54;;;;;;;1.20;1.00;;;10.50;98.00;;;;;;5068442;28;20849;-68
2021/03/27 03:34:27;;;;;;;1.20;0.90;;;10.50;98.00;;;;;;5070322;28;20465;-68
2021/03/27 03:37:02;;;;;;;1.20;1.00;;;10.50;98.00;;;;;;5068381;28;20465;-68
2021/03/27 03:39:41;;;;;;;1.20;1.00;;;10.60;98.00;;;;;;5070265;28;20819;-67
2021/03/27 03:42:43;;;;;;;1.20;1.10;;;10.60;98.00;;;;;;5068659;28;20861;-67
2021/03/27 03:45:14;;;;;;;1.20;1.00;;;10.50;98.00;;;;;;5056633;28;20529;-67
2021/03/27 03:47:53;;;;;;;1.20;1.00;;;10.50;98.00;;;;;;5083644;28;20459;-67
2021/03/27 03:50:34;;;;;;;1.20;0.97;;;10.50;98.00;;;;;;5070024;28;20773;-67
2021/03/27 03:53:28;;;;;;;1.20;1.10;;;10.60;98.00;;;;;;5070565;28;20460;-67
2021/03/27 03:56:12;;;;;;;1.20;1.10;;;10.50;98.00;;;;;;5073437;28;20464;-67
2021/03/27 03:59:09;;;;;;;1.30;1.00;;;10.40;98.00;;;;;;5071755;28;20838;-68
2021/03/27 04:01:43;;;;;;;1.20;1.00;;;10.40;98.00;;;;;;5071782;28;20844;-67
2021/03/27 04:04:17;;;;;;;1.20;0.90;;;10.40;98.00;;;;;;5073373;28;20489;-67
2021/03/27 04:06:47;;;;;;;1.20;1.00;;;10.40;98.00;;;;;;5071630;28;20831;-67
2021/03/27 04:09:29;;;;;;;1.20;0.90;;;10.30;98.00;;;;;;5073621;28;20452;-67
2021/03/27 04:12:18;;;;;;;2.57;1.93;;;10.20;98.00;;;;;;5071862;28;20880;-68
2021/03/27 04:15:22;;;;;;;1.20;1.00;;;10.00;98.00;;;;;;5073153;28;20462;-67
2021/03/27 04:17:59;;;;;;;1.20;1.00;;;9.90;98.00;;;;;;5032041;28;20522;-67
2021/03/27 04:20:33;;;;;;;1.87;1.07;;;9.60;98.00;;;;;;5050263;28;21037;-67
2021/03/27 04:23:11;;;;;;;1.20;1.00;;;9.50;98.00;;;;;;5061832;28;20477;-68
2021/03/27 04:25:42;;;;;;;1.87;1.07;;;9.40;98.00;;;;;;5072830;28;20467;-67
2021/03/27 04:28:14;;;;;;;1.20;1.00;;;9.40;98.00;;;;;;5070957;28;20515;-67
2021/03/27 04:31:03;;;;;;;2.83;1.10;;;9.30;98.00;;;;;;5072731;28;20488;-67
2021/03/27 04:33:44;;;;;;;1.20;1.00;;;9.30;98.00;;;;;;5071415;28;20514;-67
2021/03/27 04:36:16;;;;;;;1.30;1.00;;;9.30;98.00;;;;;;5072610;28;20468;-67
2021/03/27 04:38:48;;;;;;;1.20;0.93;;;9.20;98.00;;;;;;5070950;28;20509;-67
2021/03/27 04:41:34;;;;;;;1.20;1.00;;;9.10;98.00;;;;;;5072840;28;20979;-67
2021/03/27 04:44:07;;;;;;;1.20;0.93;;;8.90;98.00;;;;;;5072685;28;20456;-67
2021/03/27 04:46:42;;;;;;;1.20;0.90;;;8.80;98.00;;;;;;5086132;28;20477;-67
2021/03/27 04:49:21;;;;;;;1.20;1.00;;;8.70;98.00;;;;;;5072606;28;20969;-67
2021/03/27 04:51:53;;;;;;;1.20;1.00;;;8.60;98.00;;;;;;5070792;28;20517;-68
2021/03/27 04:54:38;;;;;;;1.20;0.90;;;8.50;98.00;;;;;;5072621;28;20978;-67
2021/03/27 04:57:29;;;;;;;1.20;1.00;;;8.40;98.00;;;;;;5070877;28;20936;-68
2021/03/27 05:00:26;;;;;;;1.20;1.10;;;8.40;98.00;;;;;;5072296;28;20473;-67
2021/03/27 05:03:06;;;;;;;1.20;0.90;;;8.40;98.00;;;;;;5070454;28;20536;-67
2021/03/27 05:05:43;;;;;;;1.20;1.00;;;8.40;98.00;;;;;;5070142;28;20466;-67
2021/03/27 05:08:15;;;;;;;1.20;0.90;;;8.30;98.00;;;;;;5070399;28;20461;-67
2021/03/27 05:10:48;;;;;;;1.20;0.90;;;8.30;98.00;;;;;;5087279;28;20489;-67
2021/03/27 05:13:27;;;;;;;1.20;1.00;;;8.30;98.00;;;;;;5070452;28;20515;-68
2021/03/27 05:16:00;;;;;;;1.20;0.90;;;8.30;98.00;;;;;;5072000;28;20453;-67
2021/03/27 05:18:39;;;;;;;1.20;1.00;;;8.40;98.00;;;;;;5085394;28;20491;-68
2021/03/27 05:21:14;;;;;;;1.20;1.00;;;8.30;98.00;;;;;;5071548;28;20795;-67
2021/03/27 05:23:50;;;;;;;1.20;1.00;;;8.30;98.00;;;;;;5070134;28;20543;-67
2021/03/27 05:26:27;;;;;;;1.20;0.90;;;8.20;98.00;;;;;;5071937;28;20776;-68
2021/03/27 05:29:16;;;;;;;1.20;0.90;;;8.20;98.00;;;;;;5070239;28;21039;-67
2021/03/27 05:31:53;;;;;;;1.20;1.00;;;8.20;98.00;;;;;;5070058;28;20482;-68
2021/03/27 05:34:27;;;;;;;1.20;1.00;;;8.20;98.00;;;;;;5071496;28;20491;-67
2021/03/27 05:37:06;;;;;;;4.10;1.20;;;8.10;98.00;;;;;;5069798;28;20471;-67
2021/03/27 05:39:37;;;;;;;1.20;0.90;;;8.10;98.00;;;;;;5071479;28;20481;-67
2021/03/27 05:42:41;;;;;;;1.20;0.97;;;8.10;98.00;;;;;;5084947;28;20454;-67
2021/03/27 05:45:52;;;;;;;1.20;1.00;;;8.00;98.00;;;;;;5071529;28;20506;-67
2021/03/27 05:49:01;;;;;;;1.20;1.00;;;8.00;98.00;;;;;;5069513;28;20453;-67
2021/03/27 05:52:12;;;;;;;1.30;1.17;;;8.00;98.00;;;;;;5071230;28;20533;-67
2021/03/27 05:55:22;;;;;;;1.20;1.00;;;8.00;98.00;;;;;;5069811;28;20494;-67
2021/03/27 05:58:33;;;;;;;1.43;1.10;;;8.10;98.00;;;;;;5069372;28;20513;-67
2021/03/27 06:01:20;;;;;;;1.20;1.00;;;8.20;98.00;;;;;;5061119;28;20614;-67
2021/03/27 06:04:29;;;;;;;1.20;1.00;;;8.10;98.00;;;;;;5070057;28;20462;-67
2021/03/27 06:07:54;;;;;;;1.20;1.00;;;8.10;98.00;;;;;;5051963;28;20934;-67
2021/03/27 06:10:51;;;;;;;1.20;1.00;;;8.00;98.00;;;;;;5008944;28;20462;-67
2021/03/27 06:13:39;;;;;;;1.20;0.90;;;7.90;98.00;;;;;;5007555;28;20498;-67
2021/03/27 06:16:34;;;;;;;1.20;1.00;;;7.80;98.00;;;;;;5059382;28;20456;-67
2021/03/27 06:19:49;;;;;;;1.20;1.00;;;7.90;98.00;;;;;;5070658;28;20466;-67
2021/03/27 06:22:50;;;;;;;1.20;1.00;;;7.80;98.00;;;;;;5068518;28;20461;-67
2021/03/27 06:25:35;;;;;;;1.20;1.00;;;7.60;98.00;;;;;;5085300;28;20467;-67
2021/03/27 06:28:36;;;;;;;1.20;0.90;;;7.50;98.00;;;;;;5057181;28;20482;-67
2021/03/27 06:31:31;;;;;;;1.20;1.00;;;7.50;98.00;;;;;;5070591;28;20520;-67
2021/03/27 06:34:45;;;;;;;1.20;1.03;;;7.50;98.00;;;;;;5069024;28;20468;-67
2021/03/27 06:37:43;;;;;;;1.20;0.90;;;7.60;98.00;;;;;;5046432;28;20558;-67
2021/03/27 06:40:48;;;;;;;1.20;0.90;;;7.60;98.00;;;;;;5070621;28;20463;-67
2021/03/27 06:43:46;;;;;;;1.20;0.90;;;7.50;98.00;;;;;;5068772;28;20466;-67
2021/03/27 06:46:44;;;;;;;1.20;0.90;;;7.60;98.00;;;;;;5070310;28;20469;-67
2021/03/27 06:49:40;;;;;;;1.20;0.90;;;7.60;98.00;;;;;;5070261;28;20504;-67
2021/03/27 06:52:40;;;;;;;1.20;1.00;;;7.60;98.00;;;;;;5068778;28;20483;-67
2021/03/27 06:55:43;;;;;;;1.20;1.00;;;7.70;98.00;;;;;;5070500;28;20489;-67
2021/03/27 06:58:47;;;;;;;1.20;1.00;;;7.40;98.00;;;;;;5046246;28;20467;-67
2021/03/27 07:01:56;;;;;;;1.20;1.00;;;7.30;98.00;;;;;;5048009;28;20460;-67
2021/03/27 07:05:08;;;;;;;1.40;1.20;;;7.20;98.00;;;;;;5069995;28;20504;-67
2021/03/27 07:08:01;;;;;;;1.20;0.90;;;7.10;98.00;;;;;;5058136;28;20466;-67
2021/03/27 07:11:12;;;;;;;1.20;1.00;;;7.20;98.00;;;;;;5070446;28;20622;-67
2021/03/27 07:14:12;;;;;;;1.20;1.00;;;7.40;98.00;;;;;;5068748;28;20460;-67
2021/03/27 07:17:01;;;;;;;1.20;1.00;;;7.50;98.00;;;;;;5070114;28;20455;-67
2021/03/27 07:19:55;;;;;;;1.20;0.97;;;7.40;98.00;;;;;;5070876;28;20483;-67
2021/03/27 07:22:41;;;;;;;1.20;0.97;;;7.30;98.00;;;;;;5067669;28;20451;-67
2021/03/27 07:25:48;;;;;;;1.20;1.00;;;7.40;98.00;;;;;;5070266;28;20464;-66
2021/03/27 07:28:39;;;;;;;1.20;0.90;;;7.50;98.00;;;;;;5070615;28;20518;-66
2021/03/27 07:31:41;;;;;;;1.20;0.90;;;7.40;98.00;;;;;;5073815;28;20546;-66
2021/03/27 07:34:48;;;;;;;1.20;0.90;;;7.40;98.00;;;;;;5065968;28;20820;-66
2021/03/27 07:37:47;;;;;;;1.20;1.00;;;7.40;97.70;;;;;;5071960;28;20456;-66
2021/03/27 07:40:37;;;;;;;1.20;0.90;;;7.40;97.20;;;;;;5073800;28;20569;-67
2021/03/27 07:43:35;;;;;;;1.20;0.90;;;7.60;94.50;;;;;;5070420;28;20519;-66
2021/03/27 07:46:27;;;;;;;1.20;0.90;;;7.70;93.60;;;;;;5073486;28;20472;-66
2021/03/27 07:49:33;;;;;;;1.20;1.00;;;7.80;91.50;;;;;;5071752;28;20488;-67
2021/03/27 07:52:30;;;;;;;1.20;1.00;;;8.00;92.70;;;;;;5069608;28;20493;-67
2021/03/27 07:55:35;;;;;;;1.90;1.20;;;8.10;91.40;;;;;;5073457;28;20584;-66
2021/03/27 07:58:55;;;;;;;1.20;0.90;;;8.30;91.00;;;;;;5071840;28;20493;-67
2021/03/27 08:01:38;;;;;;;1.20;1.00;;;8.40;91.40;;;;;;5073141;28;20470;-67
2021/03/27 08:05:04;;;;;;;1.20;1.00;;;8.50;90.60;;;;;;5071678;28;20454;-67
2021/03/27 08:07:52;;;;;;;1.20;0.93;;;8.30;89.60;;;;;;5071896;28;20459;-66
2021/03/27 08:10:35;;;;;;;1.20;1.00;;;8.10;88.20;;;;;;5073240;28;20457;-67
2021/03/27 08:13:23;;;;;;;1.20;1.00;;;8.10;88.10;;;;;;5071518;28;20461;-67
2021/03/27 08:16:30;;;;;;;1.20;1.00;;;8.20;91.10;;;;;;5073131;28;20967;-67
2021/03/27 08:19:33;;;;;;;1.30;1.17;;;8.30;89.10;;;;;;5070751;28;20964;-66
2021/03/27 08:22:20;;;;;;;1.20;1.00;;;8.60;88.70;;;;;;5071146;28;20456;-67
2021/03/27 08:24:52;;;;;;;1.20;1.00;;;8.80;90.60;;;;;;5073005;28;20458;-67
2021/03/27 08:27:49;;;;;;;1.20;1.00;;;8.80;87.80;;;;;;5071131;28;20952;-67
2021/03/27 08:30:58;;;;;;;1.20;0.90;;;8.90;89.70;;;;;;5072903;28;20880;-67
2021/03/27 08:34:01;;;;;;;1.20;0.90;;;9.10;87.10;;;;;;5069661;28;20458;-68
2021/03/27 08:37:04;;;;;;;1.20;0.90;;;9.00;86.90;;;;;;5072347;28;20459;-68
2021/03/27 08:40:03;;;;;;;1.50;1.10;;;9.00;88.30;;;;;;5072163;28;20504;-68
2021/03/27 08:43:30;;;;;;;1.20;1.10;;;9.00;88.70;;;;;;5070810;28;20468;-64
2021/03/27 08:46:33;;;;;;;1.20;1.07;;;9.00;88.50;;;;;;5071955;28;20466;-67
2021/03/27 08:49:28;;;;;;;1.20;0.90;;;9.00;87.80;;;;;;5069192;28;20501;-66
2021/03/27 08:52:04;;;;;;;1.20;0.90;;;8.90;87.50;;;;;;5069989;28;20569;-67
2021/03/27 08:55:08;;;;;;;1.20;1.00;;;8.80;87.30;;;;;;5070423;28;20462;-67
2021/03/27 08:58:17;;;;;;;1.20;1.00;;;8.70;89.50;;;;;;5070217;28;20462;-67
2021/03/27 09:01:35;;;;;;;1.20;1.00;;;8.70;89.20;;;;;;5071855;28;20453;-67
2021/03/27 09:04:26;;;;;;;1.20;0.90;;;8.90;89.30;;;;;;5069676;28;20450;-66
2021/03/27 09:07:30;;;;;;;1.20;1.00;;;9.30;86.60;;;;;;5070653;28;20967;-67
2021/03/27 09:10:41;;;;;;;1.20;1.00;;;9.50;86.60;;;;;;5071550;28;20504;-67
2021/03/27 09:13:41;;;;;;;1.20;1.20;;;9.80;86.60;;;;;;5063914;28;21141;-68
2021/03/27 09:16:41;;;;;;;1.20;1.00;;;10.00;80.90;;;;;;5071457;28;20466;-67
2021/03/27 09:19:49;;;;;;;1.20;1.00;;;10.10;80.60;;;;;;5069781;28;20462;-67
2021/03/27 09:22:46;;;;;;;1.33;1.10;;;10.20;77.70;;;;;;5063396;28;21104;-67
2021/03/27 09:25:33;;;;;;;1.20;0.90;;;10.20;79.10;;;;;;5070923;28;20453;-67
2021/03/27 09:28:06;;;;;;;1.20;1.00;;;;;;;;;;5082809;28;20465;-67
2021/03/27 09:30:43;;;;;;;1.20;0.90;;;10.40;76.90;;;;;;5071336;28;20950;-68
2021/03/27 09:33:18;;;;;;;1.20;0.90;;;10.40;78.80;;;;;;5069749;28;20548;-68
2021/03/27 09:36:09;;;;;;;1.20;0.90;;;10.50;76.50;;;;;;5071603;28;20826;-68
2021/03/27 09:38:48;;;;;;;1.20;0.90;;;10.40;75.80;;;;;;5069458;28;20973;-68
2021/03/27 09:41:50;;;;;;;1.20;1.00;;;10.70;75.10;;;;;;5071476;28;20467;-68
2021/03/27 09:44:44;;;;;;;1.20;1.00;;;10.70;75.60;;;;;;5055992;28;20464;-68
2021/03/27 09:47:51;;;;;;;1.20;0.90;;;10.70;75.40;;;;;;5069340;28;20487;-67
2021/03/27 09:50:27;;;;;;;1.20;1.00;;;10.70;74.40;;;;;;5070769;28;20461;-68
2021/03/27 09:53:04;;;;;;;1.20;0.90;;;10.80;74.80;;;;;;5069551;28;20472;-68
2021/03/27 09:55:48;;;;;;;1.20;0.90;;;10.90;76.10;;;;;;5071433;28;20910;-68
2021/03/27 09:58:21;;;;;;;1.20;1.00;;;11.00;74.40;;;;;;5069592;28;20467;-68
2021/03/27 10:01:00;;;;;;;1.20;0.90;;;11.10;74.80;;;;;;5071509;28;20454;-67
2021/03/27 10:03:35;;;;;;;1.20;0.90;;;11.10;74.90;;;;;;5069621;28;20833;-68
2021/03/27 10:06:42;;;;;;;1.20;1.00;;;11.20;74.60;;;;;;5086206;28;20461;-67
2021/03/27 10:09:21;;;;;;;1.20;0.97;;;11.30;75.00;;;;;;5069426;28;20460;-68
2021/03/27 10:11:54;;;;;;;1.20;1.00;;;11.30;74.00;;;;;;5071104;28;20514;-68
2021/03/27 10:14:24;;;;;;;1.20;0.93;;;11.30;75.10;;;;;;5069610;28;20963;-67
2021/03/27 10:16:55;;;;;;;1.20;1.00;;;11.50;73.00;;;;;;5071052;28;20465;-67
2021/03/27 10:19:30;;;;;;;1.20;1.00;;;11.40;72.20;;;;;;5069416;28;20505;-67
2021/03/27 10:22:14;;;;;;;1.20;1.10;;;11.30;73.70;;;;;;5070975;28;20825;-67
2021/03/27 10:24:45;;;;;;;1.20;0.90;;;11.30;74.00;;;;;;5071026;28;20950;-67
2021/03/27 10:27:21;;;;;;;1.20;0.97;;;10.90;73.80;;;;;;5068823;28;20453;-67
2021/03/27 10:30:03;;;;;;;1.20;1.00;;;10.90;74.80;;;;;;5070321;28;20466;-67
2021/03/27 10:32:59;;;;;;;1.20;1.00;;;11.00;74.80;;;;;;5069154;28;20507;-67
2021/03/27 10:36:03;;;;;;;1.20;0.90;;;11.30;74.20;;;;;;5070869;28;20454;-67
2021/03/27 10:38:56;;;;;;;1.20;1.00;;;11.40;70.80;;;;;;5069073;28;21119;-67
2021/03/27 10:41:30;;;;;;;1.20;1.00;;;11.50;72.00;;;;;;5070452;28;20979;-67
2021/03/27 10:44:04;;;;;;;1.30;1.10;;;11.70;72.60;;;;;;5067725;28;20513;-67
2021/03/27 10:46:39;;;;;;;1.30;1.20;;;12.10;73.70;;;;;;5069571;28;20555;-68
2021/03/27 10:49:28;;;;;;;1.70;1.60;;;12.50;69.80;;;;;;5068455;28;20452;-67
2021/03/27 10:52:28;;;;;;;1.20;1.00;;;;;;;;;;5069877;28;20492;-67
2021/03/27 10:55:23;;;;;;;1.20;0.90;;;12.50;71.00;;;;;;5069993;28;21473;-67
2021/03/27 10:58:26;;;;;;;1.20;0.90;;;12.50;70.10;;;;;;5067793;28;20466;-66
2021/03/27 11:01:32;;;;;;;1.20;1.00;;;12.10;67.30;;;;;;5069955;28;20465;-66
2021/03/27 11:04:23;;;;;;;1.20;1.00;;;12.20;70.60;;;;;;5085453;28;20761;-67
2021/03/27 11:07:22;;;;;;;1.20;1.00;;;12.60;70.00;;;;;;5073898;28;20473;-67
2021/03/27 11:10:22;;;;;;;1.20;1.00;;;12.50;69.60;;;;;;5073945;28;20462;-67
2021/03/27 11:13:29;;;;;;;1.20;1.00;;;11.90;68.30;;;;;;5072213;28;20526;-67
2021/03/27 11:16:18;;;;;;;1.20;1.00;;;11.60;70.40;;;;;;5073890;28;20462;-67
2021/03/27 11:19:04;;;;;;;1.20;1.00;;;12.10;73.30;;;;;;5072154;28;20461;-67
2021/03/27 11:22:04;;;;;;;1.20;1.00;;;12.00;69.60;;;;;;5073926;28;20951;-67
2021/03/27 11:24:49;;;;;;;1.20;0.90;;;11.70;69.00;;;;;;5073461;28;20469;-67
2021/03/27 11:27:39;;;;;;;1.20;1.00;;;11.50;69.30;;;;;;5072142;28;20452;-68
2021/03/27 11:30:16;;;;;;;1.20;1.00;;;11.20;71.00;;;;;;5073685;28;20452;-67
2021/03/27 11:32:48;;;;;;;1.60;1.10;;;10.80;70.60;;;;;;5072065;28;20483;-67
2021/03/27 11:35:21;;;;;;;1.20;1.00;;;10.70;71.60;;;;;;5073663;28;20886;-67
2021/03/27 11:38:04;;;;;;;1.20;0.90;;;11.00;69.60;;;;;;5071745;28;20531;-67
2021/03/27 11:40:40;;;;;;;1.20;1.00;;;11.80;70.30;;;;;;5073604;28;20890;-67
2021/03/27 11:43:48;;;;;;;1.20;0.90;;;12.40;69.20;;;;;;5071699;28;20555;-67
2021/03/27 11:46:24;;;;;;;1.20;1.00;;;12.30;66.40;;;;;;5066914;28;20550;-67
2021/03/27 11:48:54;;;;;;;1.20;0.90;;;12.10;67.30;;;;;;5071479;28;20551;-67
2021/03/27 11:51:29;;;;;;;1.20;1.00;;;12.10;67.90;;;;;;5073004;28;20511;-67
2021/03/27 11:54:11;;;;;;;1.20;1.00;;;12.10;66.20;;;;;;5072319;28;20462;-67
2021/03/27 11:56:47;;;;;;;1.20;1.00;;;12.10;67.50;;;;;;5072894;28;20470;-67
2021/03/27 12:02:44;;;;;;;1.20;1.00;;;11.80;68.40;;;;;;5071338;28;20451;-68
2021/03/27 12:05:14;;;;;;;1.20;1.00;;;11.60;68.80;;;;;;5072955;28;20480;-67
2021/03/27 12:07:50;;;;;;;1.20;1.10;;;11.60;68.60;;;;;;5071071;28;20454;-67
2021/03/27 12:10:40;;;;;;;1.20;1.10;;;11.80;69.70;;;;;;5072699;28;20459;-67
2021/03/27 12:13:13;;;;;;;1.20;0.97;;;11.90;67.70;;;;;;5070359;28;20492;-66
2021/03/27 12:15:48;;;;;;;1.20;0.90;;;11.70;68.50;;;;;;5073141;28;20462;-67
2021/03/27 12:18:34;;;;;;;1.20;0.97;;;11.50;70.40;;;;;;5071248;28;20509;-67
2021/03/27 12:21:09;;;;;;;1.20;0.93;;;11.30;70.50;;;;;;5072888;28;20468;-67
2021/03/27 12:23:39;;;;;;;1.20;1.00;;;11.30;79.70;;;;;;5071731;28;20456;-67
2021/03/27 12:26:20;;;;;;;1.20;0.90;;;11.70;72.10;;;;;;5074200;28;20460;-66
2021/03/27 12:28:58;;;;;;;1.20;1.10;;;11.70;70.10;;;;;;5071447;28;20452;-66
2021/03/27 12:31:45;;;;;;;1.20;0.90;;;11.60;69.70;;;;;;5089129;28;20480;-66
2021/03/27 12:34:20;;;;;;;1.20;1.00;;;11.50;70.90;;;;;;5070912;28;20453;-66
2021/03/27 12:36:55;;;;;;;1.20;1.00;;;11.40;71.80;;;;;;5072568;28;20464;-66
2021/03/27 12:39:29;;;;;;;2.43;1.30;;;11.20;70.50;;;;;;5071082;28;20457;-67
2021/03/27 12:42:06;;;;;;;1.20;1.00;;;11.20;72.40;;;;;;5072658;28;20460;-67
2021/03/27 12:44:37;;;;;;;1.20;0.90;;;11.20;71.70;;;;;;5070785;28;20525;-66
2021/03/27 12:47:24;;;;;;;1.20;0.97;;;11.10;71.20;;;;;;5072546;28;20491;-66
2021/03/27 12:50:11;;;;;;;1.30;1.00;;;10.90;71.00;;;;;;5072563;28;20472;-66
2021/03/27 12:52:53;;;;;;;1.30;1.10;;;10.80;72.80;;;;;;5069095;28;20513;-67
2021/03/27 12:55:28;;;;;;;1.20;1.00;;;10.80;72.30;;;;;;5072370;28;20471;-68
2021/03/27 12:58:05;;;;;;;1.30;1.10;;;10.80;71.80;;;;;;5068993;28;20818;-67
2021/03/27 13:01:00;;;;;;;1.20;1.00;;;10.90;71.10;;;;;;5072067;28;20453;-65
2021/03/27 13:03:47;;;;;;;1.20;0.90;;;10.90;72.50;;;;;;5070035;28;20461;-65
2021/03/27 13:06:39;;;;;;;1.20;1.00;;;10.90;71.40;;;;;;5060291;28;20450;-65
2021/03/27 13:09:40;;;;;;;2.17;1.43;;;11.20;71.00;;;;;;5070053;28;20452;-66
2021/03/27 13:12:13;;;;;;;1.20;0.97;;;11.30;70.20;;;;;;5071701;28;20497;-65
2021/03/27 13:15:15;;;;;;;1.20;0.93;;;11.50;70.50;;;;;;5070188;28;20463;-66
2021/03/27 13:18:24;;;;;;;1.20;0.90;;;11.50;69.50;;;;;;5069532;28;20460;-65
2021/03/27 13:20:58;;;;;;;1.20;0.90;;;11.50;70.10;;;;;;5071257;28;20536;-65
2021/03/27 13:23:32;;;;;;;1.20;1.10;;;11.90;68.60;;;;;;5069346;28;20461;-67
2021/03/27 13:26:04;;;;;;;11.83;1.70;;;12.50;70.40;;;;;;5070442;28;20893;-67
2021/03/27 13:28:35;;;;;;;1.30;1.00;;;12.90;68.90;;;;;;5069236;28;20497;-65
2021/03/27 13:31:11;;;;;;;1.20;0.90;;;13.20;67.50;;;;;;5071482;28;20520;-65
2021/03/27 13:33:45;;;;;;;1.20;1.00;;;12.90;65.10;;;;;;5069248;28;20857;-65
2021/03/27 13:36:25;;;;;;;1.20;1.10;;;13.00;66.80;;;;;;5055372;28;20828;-65
2021/03/27 13:39:19;;;;;;;1.20;1.00;;;13.60;65.50;;;;;;5049870;28;20447;-66
2021/03/27 13:42:29;;;;;;;1.20;1.00;;;14.00;64.40;;;;;;5051619;28;20465;-66
2021/03/27 13:45:09;;;;;;;1.20;1.00;;;14.30;62.90;;;;;;5050897;28;20533;-65
2021/03/27 13:47:46;;;;;;;1.20;1.00;;;14.60;62.20;;;;;;5147705;27;21447;-66
2021/03/27 13:50:36;;;;;;;1.50;1.20;;;14.40;62.90;;;;;;5129283;28;20455;-65
2021/03/27 13:53:18;;;;;;;1.20;1.00;;;14.20;61.80;;;;;;5127542;28;20526;-65
2021/03/27 13:55:59;;;;;;;1.20;0.90;;;14.40;62.20;;;;;;5129426;27;21073;-65
2021/03/27 13:58:31;;;;;;;1.30;1.20;;;14.60;62.60;;;;;;5127457;28;20459;-66
2021/03/27 14:01:03;;;;;;;1.20;0.90;;;14.30;63.90;;;;;;5129478;28;20522;-65
2021/03/27 14:03:44;;;;;;;1.20;1.00;;;14.10;63.90;;;;;;5127818;27;20445;-65
2021/03/27 14:06:24;;;;;;;1.20;0.90;;;14.40;62.80;;;;;;5129041;28;20526;-65
2021/03/27 14:09:16;;;;;;;1.20;1.00;;;14.20;62.80;;;;;;5126121;28;20533;-65
2021/03/27 14:11:51;;;;;;;1.20;0.90;;;14.40;63.40;;;;;;5100474;28;20447;-65
2021/03/27 14:14:24;;;;;;;1.20;0.90;;;14.80;63.80;;;;;;5126918;28;20454;-66
2021/03/27 14:17:02;;;;;;;1.20;1.00;;;15.10;63.30;;;;;;5128697;27;20967;-66
2021/03/27 14:19:42;;;;;;;1.20;1.00;;;15.00;59.70;;;;;;5125738;28;20888;-66
2021/03/27 14:22:31;;;;;;;1.20;1.00;;;14.60;62.50;;;;;;5128598;28;20552;-65
2021/03/27 14:25:24;;;;;;;1.20;1.00;;;15.00;61.90;;;;;;5128443;28;20488;-66